createdAt,value
2023-03-02T00:01:26.924Z,0.80
2023-03-02T00:03:54.639Z,1.00
2023-03-02T00:06:21.749Z,0.90
2023-03-02T00:08:48.780Z,1.13
2023-03-02T00:11:15.886Z,1.00
2023-03-02T00:13:44.286Z,0.93
2023-03-02T00:16:11.428Z,1.08
2023-03-02T00:18:38.583Z,1.20
2023-03-02T00:21:05.630Z,1.08
2023-03-02T00:23:32.475Z,0.90
2023-03-02T00:25:59.389Z,0.90
2023-03-02T00:28:26.238Z,1.10
2023-03-02T00:30:53.083Z,1.00
2023-03-02T00:33:21.216Z,1.27
2023-03-02T00:35:48.064Z,1.17
2023-03-02T00:38:15.123Z,1.00
2023-03-02T00:40:46.743Z,0.93
2023-03-02T00:43:13.987Z,0.98
2023-03-02T00:45:40.890Z,1.00
2023-03-02T00:48:07.882Z,1.00
2023-03-02T00:50:41.217Z,1.23
2023-03-02T00:53:09.576Z,1.02
2023-03-02T00:55:37.718Z,1.10
2023-03-02T00:58:05.972Z,1.15
2023-03-02T01:00:34.435Z,0.82
2023-03-02T01:03:01.395Z,0.90
2023-03-02T01:05:28.229Z,1.30
2023-03-02T01:07:55.127Z,0.80
2023-03-02T01:10:21.990Z,0.93
2023-03-02T01:12:48.854Z,0.95
2023-03-02T01:15:15.851Z,1.30
2023-03-02T01:17:44.206Z,1.20
2023-03-02T01:20:12.735Z,1.02
2023-03-02T01:22:39.736Z,1.20
2023-03-02T01:25:06.797Z,0.90
2023-03-02T01:27:33.672Z,1.05
2023-03-02T01:30:00.537Z,1.10
2023-03-02T01:32:27.709Z,1.20
2023-03-02T01:34:54.763Z,0.98
2023-03-02T01:37:23.305Z,0.90
2023-03-02T01:39:50.908Z,1.05
2023-03-02T01:42:18.155Z,1.00
2023-03-02T01:44:47.676Z,1.33
2023-03-02T01:47:32.619Z,1.30
2023-03-02T01:50:06.564Z,1.00
2023-03-02T01:52:35.717Z,1.00
2023-03-02T01:55:07.186Z,1.40
2023-03-02T01:57:43.933Z,1.63
2023-03-02T02:00:22.621Z,1.08
2023-03-02T02:02:51.162Z,1.10
2023-03-02T02:05:21.569Z,1.00
2023-03-02T02:07:48.555Z,1.17
2023-03-02T02:10:15.530Z,1.00
2023-03-02T02:12:42.479Z,1.05
2023-03-02T02:15:10.053Z,1.17
2023-03-02T02:17:36.890Z,1.08
2023-03-02T02:20:21.000Z,1.00
2023-03-02T02:23:06.173Z,1.00
2023-03-02T02:25:55.610Z,0.90
2023-03-02T02:28:28.362Z,1.05
2023-03-02T02:31:06.272Z,0.88
2023-03-02T02:33:34.323Z,1.05
2023-03-02T02:36:12.266Z,0.90
2023-03-02T02:38:41.135Z,0.80
2023-03-02T02:41:13.226Z,0.93
2023-03-02T02:43:40.090Z,0.90
2023-03-02T02:46:07.093Z,0.70
2023-03-02T02:48:34.869Z,1.10
2023-03-02T02:51:03.446Z,0.95
2023-03-02T02:53:50.148Z,0.90
2023-03-02T02:56:18.932Z,0.77
2023-03-02T02:58:54.354Z,0.98
2023-03-02T03:01:26.332Z,0.90
2023-03-02T03:04:01.047Z,0.90
2023-03-02T03:06:38.620Z,0.95
2023-03-02T03:09:11.049Z,0.82
2023-03-02T03:11:41.794Z,0.80
2023-03-02T03:14:13.456Z,1.13
2023-03-02T03:16:42.418Z,1.00
2023-03-02T03:19:26.131Z,0.80
2023-03-02T03:21:56.092Z,0.90
2023-03-02T03:24:24.408Z,0.80
2023-03-02T03:26:51.741Z,0.75
2023-03-02T03:29:19.245Z,0.68
2023-03-02T03:31:46.079Z,0.68
2023-03-02T03:34:12.982Z,0.90
2023-03-02T03:36:39.881Z,1.00
2023-03-02T03:39:06.837Z,1.10
2023-03-02T03:41:33.959Z,0.70
2023-03-02T03:44:00.895Z,0.85
2023-03-02T03:46:28.821Z,0.80
2023-03-02T03:48:55.882Z,0.85
2023-03-02T03:51:23.337Z,0.75
2023-03-02T03:53:59.998Z,0.95
2023-03-02T03:56:33.725Z,0.90
2023-03-02T03:59:10.802Z,0.90
2023-03-02T04:01:42.188Z,0.98
2023-03-02T04:04:13.585Z,0.60
2023-03-02T04:06:41.485Z,0.90
2023-03-02T04:09:09.185Z,0.70
2023-03-02T04:11:39.157Z,1.10
2023-03-02T04:14:07.491Z,0.80
2023-03-02T04:16:35.191Z,0.85
2023-03-02T04:19:02.794Z,1.00
2023-03-02T04:21:30.001Z,0.70
2023-03-02T04:23:56.869Z,0.70
2023-03-02T04:26:24.199Z,0.68
2023-03-02T04:28:51.159Z,0.98
2023-03-02T04:31:18.413Z,0.70
2023-03-02T04:33:45.498Z,0.88
2023-03-02T04:36:12.446Z,0.93
2023-03-02T04:38:39.426Z,0.65
2023-03-02T04:41:06.843Z,0.60
2023-03-02T04:43:33.732Z,0.93
2023-03-02T04:46:00.609Z,0.60
2023-03-02T04:48:27.766Z,0.70
2023-03-02T04:50:54.539Z,0.57
2023-03-02T04:53:21.510Z,0.55
2023-03-02T04:55:48.781Z,0.90
2023-03-02T04:58:15.622Z,0.73
2023-03-02T05:00:42.504Z,0.50
2023-03-02T05:03:09.334Z,0.80
2023-03-02T05:05:36.299Z,0.57
2023-03-02T05:08:03.209Z,0.68
2023-03-02T05:10:30.063Z,0.60
2023-03-02T05:13:02.946Z,0.77
2023-03-02T05:15:36.109Z,0.70
2023-03-02T05:18:04.894Z,0.90
2023-03-02T05:20:31.951Z,0.38
2023-03-02T05:23:01.946Z,0.60
2023-03-02T05:25:31.290Z,0.68
2023-03-02T05:27:58.590Z,0.75
2023-03-02T05:30:25.902Z,0.60
2023-03-02T05:32:53.455Z,0.65
2023-03-02T05:35:22.055Z,1.13
2023-03-02T05:37:49.285Z,0.57
2023-03-02T05:40:20.244Z,0.50
2023-03-02T05:42:47.083Z,0.80
2023-03-02T05:45:21.040Z,0.70
2023-03-02T05:47:48.338Z,0.52
2023-03-02T05:50:15.317Z,0.47
2023-03-02T05:52:42.838Z,0.73
2023-03-02T05:55:10.360Z,0.52
2023-03-02T05:57:37.405Z,0.80
2023-03-02T06:00:06.101Z,0.50
2023-03-02T06:02:32.948Z,0.63
2023-03-02T06:04:59.757Z,1.10
2023-03-02T06:07:27.653Z,1.00
2023-03-02T06:09:54.444Z,0.80
2023-03-02T06:12:21.397Z,0.50
2023-03-02T06:14:48.214Z,0.65
2023-03-02T06:17:15.084Z,0.60
2023-03-02T06:19:41.914Z,1.00
2023-03-02T06:22:08.834Z,0.85
2023-03-02T06:24:35.879Z,1.27
2023-03-02T06:27:02.803Z,2.17
2023-03-02T06:29:29.691Z,1.23
2023-03-02T06:31:56.628Z,7.47
2023-03-02T06:34:23.551Z,13.00
2023-03-02T06:36:50.432Z,14.25
2023-03-02T06:39:17.311Z,15.43
2023-03-02T06:41:46.190Z,12.57
2023-03-02T06:44:14.129Z,12.65
2023-03-02T06:46:42.390Z,11.18
2023-03-02T06:49:10.465Z,11.23
2023-03-02T06:51:38.015Z,10.57
2023-03-02T06:54:07.249Z,9.25
2023-03-02T06:56:35.379Z,8.13
2023-03-02T06:59:02.445Z,7.60
2023-03-02T07:01:36.023Z,7.85
2023-03-02T07:04:04.002Z,6.60
2023-03-02T07:06:30.844Z,5.78
2023-03-02T07:08:57.759Z,4.60
2023-03-02T07:11:25.323Z,4.28
2023-03-02T07:13:52.186Z,5.22
2023-03-02T07:16:19.117Z,7.00
2023-03-02T07:18:46.032Z,7.22
2023-03-02T07:21:13.029Z,5.15
2023-03-02T07:23:39.878Z,4.18
2023-03-02T07:26:10.787Z,4.38
2023-03-02T07:28:42.491Z,3.83
2023-03-02T07:31:10.365Z,4.25
2023-03-02T07:33:39.186Z,2.85
2023-03-02T07:36:08.145Z,2.75
2023-03-02T07:38:36.965Z,2.80
2023-03-02T07:41:08.330Z,2.30
2023-03-02T07:43:36.883Z,2.40
2023-03-02T07:46:05.235Z,2.40
2023-03-02T07:48:33.541Z,2.03
2023-03-02T07:51:01.426Z,2.30
2023-03-02T07:53:28.825Z,2.10
2023-03-02T07:55:55.757Z,2.25
2023-03-02T07:58:22.819Z,1.58
2023-03-02T08:00:50.191Z,1.60
2023-03-02T08:03:17.180Z,1.67
2023-03-02T08:05:44.252Z,1.50
2023-03-02T08:08:11.588Z,1.67
2023-03-02T08:10:38.731Z,1.40
2023-03-02T08:13:05.970Z,1.25
2023-03-02T08:15:32.916Z,1.10
2023-03-02T08:18:00.798Z,0.90
2023-03-02T08:20:27.977Z,1.27
2023-03-02T08:22:54.980Z,1.00
2023-03-02T08:25:21.970Z,1.20
2023-03-02T08:27:49.220Z,0.85
2023-03-02T08:30:16.233Z,1.10
2023-03-02T08:32:43.177Z,0.88
2023-03-02T08:35:10.319Z,0.88
2023-03-02T08:37:37.228Z,0.90
2023-03-02T08:40:04.531Z,0.75
2023-03-02T08:42:31.428Z,0.85
2023-03-02T08:44:58.366Z,0.70
2023-03-02T08:47:25.550Z,0.98
2023-03-02T08:49:52.516Z,0.85
2023-03-02T08:52:19.546Z,0.80
2023-03-02T08:54:46.653Z,0.77
2023-03-02T08:57:13.572Z,1.08
2023-03-02T08:59:40.480Z,1.23
2023-03-02T09:02:07.932Z,1.10
2023-03-02T09:04:34.970Z,1.35
2023-03-02T09:07:02.089Z,0.80
2023-03-02T09:09:29.234Z,1.25
2023-03-02T09:11:56.093Z,0.75
2023-03-02T09:14:23.578Z,1.67
2023-03-02T09:16:50.580Z,1.17
2023-03-02T09:19:18.381Z,1.05
2023-03-02T09:21:49.287Z,0.88
2023-03-02T09:24:16.571Z,0.77
2023-03-02T09:26:43.916Z,0.70
2023-03-02T09:29:11.236Z,0.90
2023-03-02T09:31:38.908Z,0.85
2023-03-02T09:34:06.417Z,0.98
2023-03-02T09:36:34.880Z,0.60
2023-03-02T09:39:02.009Z,0.70
2023-03-02T09:42:07.858Z,0.63
2023-03-02T09:45:12.252Z,0.60
2023-03-02T09:48:26.186Z,0.80
2023-03-02T09:51:09.418Z,1.25
2023-03-02T09:53:51.934Z,2.08
2023-03-02T09:56:20.544Z,2.10
2023-03-02T09:59:15.437Z,2.55
2023-03-02T10:02:01.680Z,1.38
2023-03-02T10:04:35.711Z,1.00
2023-03-02T10:07:14.794Z,3.03
2023-03-02T10:09:42.937Z,2.00
2023-03-02T10:12:45.175Z,2.65
2023-03-02T10:15:23.968Z,1.50
2023-03-02T10:17:59.788Z,0.90
2023-03-02T10:20:37.808Z,0.98
2023-03-02T10:23:30.887Z,1.85
2023-03-02T10:26:19.006Z,1.80
2023-03-02T10:28:57.039Z,1.45
2023-03-02T10:31:30.011Z,2.08
2023-03-02T10:33:57.681Z,1.67
2023-03-02T10:36:31.807Z,3.08
2023-03-02T10:39:00.839Z,2.28
2023-03-02T10:41:33.503Z,2.10
2023-03-02T10:44:11.347Z,1.98
2023-03-02T10:46:43.664Z,1.40
2023-03-02T10:49:33.390Z,1.20
2023-03-02T10:52:05.588Z,1.38
2023-03-02T10:54:35.596Z,1.17
2023-03-02T10:57:04.932Z,1.23
2023-03-02T10:59:45.261Z,0.95
2023-03-02T11:02:23.867Z,1.23
2023-03-02T11:05:00.079Z,1.00
2023-03-02T11:07:29.242Z,1.20
2023-03-02T11:10:02.361Z,1.30
2023-03-02T11:12:31.278Z,0.80
2023-03-02T11:15:03.551Z,1.05
2023-03-02T11:17:34.804Z,1.23
2023-03-02T11:20:04.642Z,0.70
2023-03-02T11:22:54.617Z,0.85
2023-03-02T11:25:30.621Z,0.70
2023-03-02T11:28:06.035Z,0.80
2023-03-02T11:30:40.375Z,0.80
2023-03-02T11:33:30.340Z,0.63
2023-03-02T11:36:06.009Z,0.73
2023-03-02T11:38:41.858Z,0.88
2023-03-02T11:41:27.670Z,0.73
2023-03-02T11:43:55.333Z,0.50
2023-03-02T11:46:26.515Z,0.63
2023-03-02T11:48:58.155Z,0.60
2023-03-02T11:51:33.590Z,0.65
2023-03-02T11:54:04.025Z,0.73
2023-03-02T11:56:34.894Z,0.70
2023-03-02T11:59:07.415Z,1.40
2023-03-02T12:01:36.657Z,1.42
2023-03-02T12:04:25.630Z,1.08
2023-03-02T12:06:53.108Z,1.27
2023-03-02T12:09:23.239Z,2.53
2023-03-02T12:12:15.641Z,2.13
2023-03-02T12:14:43.747Z,1.00
2023-03-02T12:17:22.564Z,1.40
2023-03-02T12:19:51.252Z,1.38
2023-03-02T12:22:32.185Z,1.63
2023-03-02T12:25:04.266Z,1.42
2023-03-02T12:27:37.944Z,3.15
2023-03-02T12:30:26.820Z,3.05
2023-03-02T12:33:01.910Z,6.25
2023-03-02T12:35:32.559Z,1.98
2023-03-02T12:38:03.209Z,1.70
2023-03-02T12:40:54.164Z,3.00
2023-03-02T12:43:27.394Z,2.92
2023-03-02T12:46:28.718Z,4.50
2023-03-02T12:49:01.781Z,2.10
2023-03-02T12:51:34.161Z,5.03
2023-03-02T12:54:13.849Z,2.00
2023-03-02T12:56:41.043Z,1.88
2023-03-02T12:59:08.047Z,2.75
2023-03-02T13:01:35.227Z,1.83
2023-03-02T13:04:02.459Z,2.03
2023-03-02T13:06:32.922Z,2.80
2023-03-02T13:09:00.980Z,3.50
2023-03-02T13:11:32.540Z,2.83
2023-03-02T13:14:01.078Z,2.15
2023-03-02T13:16:32.870Z,2.13
2023-03-02T13:19:03.122Z,3.35
2023-03-02T13:21:33.299Z,1.65
2023-03-02T13:24:01.147Z,2.33
2023-03-02T13:26:34.412Z,2.22
2023-03-02T13:29:20.904Z,3.72
2023-03-02T13:31:47.932Z,2.47
2023-03-02T13:34:33.818Z,1.88
2023-03-02T13:37:00.923Z,2.03
2023-03-02T13:39:30.712Z,1.75
2023-03-02T13:42:02.713Z,1.27
2023-03-02T13:44:32.460Z,1.48
2023-03-02T13:47:00.612Z,1.40
2023-03-02T13:49:29.561Z,1.38
2023-03-02T13:52:08.294Z,1.10
2023-03-02T13:54:37.830Z,1.08
2023-03-02T13:57:06.547Z,1.33
2023-03-02T13:59:36.951Z,1.30
2023-03-02T14:02:11.966Z,0.80
2023-03-02T14:04:39.128Z,1.27
2023-03-02T14:07:06.147Z,1.10
2023-03-02T14:09:33.297Z,0.73
2023-03-02T14:12:00.624Z,0.70
2023-03-02T14:14:29.412Z,0.80
2023-03-02T14:16:56.940Z,0.90
2023-03-02T14:19:24.478Z,0.63
2023-03-02T14:21:51.752Z,0.98
2023-03-02T14:24:18.661Z,0.70
2023-03-02T14:26:49.192Z,0.80
2023-03-02T14:29:22.163Z,0.63
2023-03-02T14:31:49.699Z,1.88
2023-03-02T14:34:18.173Z,1.10
2023-03-02T14:36:49.201Z,1.27
2023-03-02T14:39:21.394Z,0.68
2023-03-02T14:41:53.737Z,0.60
2023-03-02T14:44:22.295Z,0.90
2023-03-02T14:46:49.447Z,0.57
2023-03-02T14:49:16.543Z,0.60
2023-03-02T14:51:49.286Z,0.90
2023-03-02T14:54:20.344Z,1.20
2023-03-02T14:56:49.319Z,1.10
2023-03-02T14:59:17.421Z,0.80
2023-03-02T15:01:47.276Z,0.90
2023-03-02T15:04:14.401Z,0.70
2023-03-02T15:06:43.715Z,0.80
2023-03-02T15:09:12.675Z,0.98
2023-03-02T15:11:39.546Z,0.60
2023-03-02T15:14:06.393Z,1.13
2023-03-02T15:16:33.349Z,0.65
2023-03-02T15:19:00.376Z,0.60
2023-03-02T15:21:27.388Z,0.50
2023-03-02T15:23:54.543Z,0.88
2023-03-02T15:26:21.610Z,0.70
2023-03-02T15:28:52.514Z,0.75
2023-03-02T15:31:21.463Z,0.85
2023-03-02T15:33:48.615Z,0.57
2023-03-02T15:36:15.559Z,0.70
2023-03-02T15:38:43.308Z,1.23
2023-03-02T15:41:15.065Z,0.60
2023-03-02T15:43:42.242Z,0.60
2023-03-02T15:46:12.172Z,1.10
2023-03-02T15:48:39.145Z,1.10
2023-03-02T15:51:08.498Z,0.95
2023-03-02T15:53:38.370Z,0.80
2023-03-02T15:56:10.552Z,0.70
2023-03-02T15:58:37.596Z,0.90
2023-03-02T16:01:09.421Z,1.83
2023-03-02T16:03:38.582Z,1.08
2023-03-02T16:06:06.469Z,0.80
2023-03-02T16:08:33.423Z,0.85
2023-03-02T16:11:04.336Z,0.85
2023-03-02T16:13:31.717Z,1.67
2023-03-02T16:16:04.140Z,0.90
2023-03-02T16:18:31.337Z,1.10
2023-03-02T16:20:58.609Z,0.80
2023-03-02T16:23:25.830Z,0.80
2023-03-02T16:25:52.948Z,0.80
2023-03-02T16:28:20.869Z,0.82
2023-03-02T16:30:48.254Z,0.88
2023-03-02T16:33:18.182Z,1.50
2023-03-02T16:35:45.530Z,1.20
2023-03-02T16:38:12.717Z,0.98
2023-03-02T16:40:40.522Z,1.55
2023-03-02T16:43:11.130Z,0.70
2023-03-02T16:45:38.288Z,1.50
2023-03-02T16:48:06.399Z,1.20
2023-03-02T16:50:33.937Z,1.10
2023-03-02T16:53:00.978Z,1.10
2023-03-02T16:55:28.064Z,1.00
2023-03-02T16:57:55.697Z,0.80
2023-03-02T17:00:23.822Z,1.25
2023-03-02T17:02:50.951Z,1.42
2023-03-02T17:05:20.717Z,1.08
2023-03-02T17:07:48.590Z,1.60
2023-03-02T17:10:19.160Z,1.15
2023-03-02T17:12:46.197Z,1.00
2023-03-02T17:15:14.609Z,0.60
2023-03-02T17:17:41.915Z,1.30
2023-03-02T17:20:10.270Z,1.65
2023-03-02T17:22:37.503Z,1.73
2023-03-02T17:25:05.206Z,1.20
2023-03-02T17:27:32.532Z,1.70
2023-03-02T17:29:59.635Z,2.00
2023-03-02T17:32:26.612Z,1.00
2023-03-02T17:34:53.741Z,0.98
2023-03-02T17:37:25.992Z,2.10
2023-03-02T17:39:53.344Z,1.55
2023-03-02T17:42:20.527Z,2.15
2023-03-02T17:44:47.362Z,4.35
2023-03-02T17:47:18.290Z,2.42
2023-03-02T17:49:45.614Z,3.08
2023-03-02T17:52:14.229Z,3.13
2023-03-02T17:54:41.438Z,2.67
2023-03-02T17:57:08.752Z,2.65
2023-03-02T17:59:36.176Z,3.03
2023-03-02T18:02:03.253Z,3.47
2023-03-02T18:04:30.296Z,2.40
2023-03-02T18:06:57.323Z,2.33
2023-03-02T18:09:24.208Z,2.35
2023-03-02T18:11:51.358Z,1.90
2023-03-02T18:14:21.555Z,2.72
2023-03-02T18:16:48.933Z,2.50
2023-03-02T18:19:15.950Z,3.45
2023-03-02T18:21:43.195Z,2.83
2023-03-02T18:24:10.419Z,2.90
2023-03-02T18:26:38.624Z,7.03
2023-03-02T18:29:06.300Z,4.35
2023-03-02T18:31:34.943Z,4.68
2023-03-02T18:34:03.120Z,5.22
2023-03-02T18:36:30.901Z,4.53
2023-03-02T18:38:58.189Z,2.35
2023-03-02T18:41:26.094Z,2.38
2023-03-02T18:43:53.294Z,1.80
2023-03-02T18:46:27.582Z,1.98
2023-03-02T18:48:56.033Z,2.20
2023-03-02T18:51:25.651Z,2.15
2023-03-02T18:53:53.668Z,1.92
2023-03-02T18:56:21.946Z,1.70
2023-03-02T18:58:50.452Z,1.58
2023-03-02T19:01:18.309Z,1.85
2023-03-02T19:03:49.256Z,3.05
2023-03-02T19:06:17.012Z,2.67
2023-03-02T19:08:44.369Z,1.90
2023-03-02T19:11:12.608Z,1.83
2023-03-02T19:13:40.144Z,2.10
2023-03-02T19:16:08.046Z,1.38
2023-03-02T19:18:35.731Z,1.25
2023-03-02T19:21:05.425Z,2.72
2023-03-02T19:23:33.812Z,1.90
2023-03-02T19:26:01.645Z,1.92
2023-03-02T19:28:28.988Z,1.23
2023-03-02T19:30:56.714Z,1.13
2023-03-02T19:33:25.077Z,1.05
2023-03-02T19:35:52.142Z,1.40
2023-03-02T19:38:19.445Z,1.35
2023-03-02T19:40:46.555Z,1.10
2023-03-02T19:43:13.599Z,1.45
2023-03-02T19:45:41.102Z,1.38
2023-03-02T19:48:09.294Z,1.20
2023-03-02T19:50:36.855Z,0.80
2023-03-02T19:53:03.936Z,0.80
2023-03-02T19:55:31.012Z,0.80
2023-03-02T19:58:01.370Z,1.20
2023-03-02T20:00:33.590Z,1.33
2023-03-02T20:03:01.270Z,1.40
2023-03-02T20:05:28.422Z,1.20
2023-03-02T20:07:55.733Z,1.30
2023-03-02T20:10:45.389Z,1.52
2023-03-02T20:13:13.371Z,3.03
2023-03-02T20:15:45.823Z,2.90
2023-03-02T20:18:19.423Z,3.38
2023-03-02T20:20:47.433Z,3.78
2023-03-02T20:23:16.039Z,3.97
2023-03-02T20:25:43.547Z,5.03
2023-03-02T20:28:13.322Z,7.47
2023-03-02T20:30:47.937Z,5.43
2023-03-02T20:33:16.017Z,5.47
2023-03-02T20:35:46.012Z,7.47
2023-03-02T20:38:22.159Z,5.38
2023-03-02T20:40:49.594Z,4.90
2023-03-02T20:43:17.745Z,5.25
2023-03-02T20:45:46.821Z,7.45
2023-03-02T20:48:14.891Z,9.30
2023-03-02T20:50:43.859Z,9.40
2023-03-02T20:53:11.820Z,11.48
2023-03-02T20:55:41.164Z,11.55
2023-03-02T20:58:09.677Z,10.35
2023-03-02T21:00:37.873Z,9.73
2023-03-02T21:03:08.431Z,9.00
2023-03-02T21:05:38.710Z,8.48
2023-03-02T21:08:06.907Z,8.63
2023-03-02T21:10:37.583Z,7.07
2023-03-02T21:13:08.276Z,6.95
2023-03-02T21:15:36.875Z,7.03
2023-03-02T21:18:04.881Z,6.70
2023-03-02T21:20:36.318Z,6.45
2023-03-02T21:23:03.996Z,5.57
2023-03-02T21:25:33.220Z,5.90
2023-03-02T21:28:00.585Z,5.03
2023-03-02T21:30:35.807Z,4.88
2023-03-02T21:33:07.078Z,4.32
2023-03-02T21:35:34.543Z,4.13
2023-03-02T21:38:05.362Z,4.20
2023-03-02T21:40:36.196Z,3.40
2023-03-02T21:43:09.047Z,3.87
2023-03-02T21:45:37.759Z,3.10
2023-03-02T21:48:06.203Z,3.05
2023-03-02T21:50:37.367Z,2.55
2023-03-02T21:55:32.776Z,2.35
2023-03-02T21:58:00.506Z,2.10
2023-03-02T22:00:36.158Z,2.28
2023-03-02T22:03:03.590Z,1.70
2023-03-02T22:05:32.155Z,1.58
2023-03-02T22:07:59.997Z,1.60
2023-03-02T22:10:45.299Z,1.50
2023-03-02T22:13:31.015Z,1.35
2023-03-02T22:16:20.780Z,2.47
2023-03-02T22:18:50.592Z,2.25
2023-03-02T22:21:25.557Z,1.40
2023-03-02T22:24:14.673Z,1.40
2023-03-02T22:26:52.388Z,1.15
2023-03-02T22:29:32.963Z,1.55
2023-03-02T22:32:20.520Z,1.30
2023-03-02T22:34:53.106Z,1.23
2023-03-02T22:37:22.736Z,1.40
2023-03-02T22:39:50.660Z,1.20
2023-03-02T22:42:23.009Z,1.08
2023-03-02T22:45:15.200Z,1.00
2023-03-02T22:47:43.228Z,1.02
2023-03-02T22:50:12.953Z,0.95
2023-03-02T22:52:43.160Z,1.00
2023-03-02T22:55:43.397Z,1.10
2023-03-02T22:58:50.122Z,0.90
2023-03-02T23:01:21.643Z,1.00
2023-03-02T23:04:11.195Z,1.00
2023-03-02T23:06:50.155Z,0.63
2023-03-02T23:09:22.021Z,1.10
2023-03-02T23:11:50.641Z,0.80
2023-03-02T23:14:27.733Z,0.90
2023-03-02T23:16:59.373Z,1.02
2023-03-02T23:19:28.505Z,1.10
2023-03-02T23:21:56.333Z,0.88
2023-03-02T23:24:23.248Z,0.88
2023-03-02T23:26:51.454Z,0.80
2023-03-02T23:29:19.882Z,0.70
2023-03-02T23:31:47.322Z,0.80
2023-03-02T23:34:14.910Z,0.77
2023-03-02T23:36:41.985Z,0.90
2023-03-02T23:39:09.795Z,0.90
2023-03-02T23:41:37.777Z,1.00
2023-03-02T23:44:06.138Z,0.80
2023-03-02T23:46:33.378Z,0.70
2023-03-02T23:49:00.999Z,0.85
2023-03-02T23:51:28.322Z,0.80
2023-03-02T23:53:55.820Z,0.98
2023-03-02T23:56:23.262Z,0.80
2023-03-02T23:58:50.671Z,1.15
